CST,Max TemperatureF,Mean TemperatureF,Min TemperatureF,Max Dew PointF,MeanDew PointF,Min DewpointF,Max Humidity, Mean Humidity, Min Humidity, Max Sea Level PressureIn, Mean Sea Level PressureIn, Min Sea Level PressureIn, Max VisibilityMiles, Mean VisibilityMiles, Min VisibilityMiles, Max Wind SpeedMPH, Mean Wind SpeedMPH, Max Gust SpeedMPH,PrecipitationIn, CloudCover, Events, WindDirDegrees
2013-1-1,73,63,53,66,59,52,100,93,76,30.07,29.99,29.91,10,8,0,15,7,21,0.14,6,Fog-Rain,206
2013-1-2,52,47,42,50,44,41,100,90,76,30.23,30.16,30.06,10,9,5,14,9,18,0.06,8,Rain,356
2013-1-3,50,42,33,41,35,26,100,82,41,30.38,30.29,30.21,10,8,4,15,7,22,0.18,3,Rain,358
2013-1-4,59,46,33,41,32,27,89,64,29,30.44,30.38,30.33,10,10,10,9,4,,0.00,1,,20
2013-1-5,54,46,39,40,36,32,89,63,50,30.36,30.29,30.22,10,10,10,9,4,,0.00,4,Rain,35
2013-1-6,51,47,41,47,44,37,100,87,58,30.30,30.23,30.18,10,9,2,14,8,21,0.29,7,Rain,23
2013-1-7,62,48,35,45,39,32,100,75,32,30.32,30.25,30.19,10,10,7,10,5,,0.01,3,,44
2013-1-8,64,55,46,63,54,41,100,90,74,30.21,30.14,30.11,10,8,4,10,5,17,0.44,6,Rain,74
2013-1-9,70,66,64,69,66,63,100,97,94,30.19,30.15,30.10,9,6,2,12,9,18,0.20,8,Rain,104
2013-1-10,71,68,64,70,66,62,100,96,87,30.17,30.11,29.97,10,7,0,16,11,26,1.37,7,Fog-Rain-Thunderstorm,129
2013-1-11,73,68,64,70,67,63,100,97,85,30.11,30.07,30.02,10,7,0,12,7,,0.20,8,Fog-Rain,157
2013-1-12,77,72,66,72,69,67,100,96,83,30.07,29.99,29.94,10,7,0,14,8,20,0.00,8,Fog,150
2013-1-13,75,64,53,72,65,52,100,97,84,30.06,29.96,29.89,10,6,0,16,11,25,0.54,8,Fog-Rain-Thunderstorm,175
2013-1-14,52,47,42,52,48,41,100,98,93,30.13,30.08,30.04,10,5,1,16,11,22,0.56,8,Rain,14
2013-1-15,55,50,44,55,49,45,100,99,93,30.06,30.00,29.94,10,3,0,8,6,,0.17,8,Fog-Rain,11
2013-1-16,46,42,37,46,41,36,100,96,85,30.13,30.05,29.98,10,6,1,10,8,17,0.27,8,Rain,336
2013-1-17,54,46,37,37,35,32,97,79,47,30.41,30.24,30.14,10,10,4,15,7,23,0.00,4,,322
2013-1-18,57,47,35,42,37,34,96,78,47,30.53,30.45,30.40,10,10,9,12,6,,0.00,0,,22
2013-1-19,64,50,35,47,41,34,100,79,48,30.40,30.31,30.25,10,10,9,7,2,,0.01,1,,23
2013-1-20,66,52,39,52,44,39,100,89,51,30.27,30.22,30.14,10,7,0,7,1,,0.01,3,Fog,22
2013-1-21,68,54,39,47,42,39,100,83,40,30.22,30.17,30.14,10,7,0,8,1,,0.00,2,Fog,15
2013-1-22,61,50,39,42,38,31,97,73,41,30.37,30.31,30.22,10,10,10,8,3,,0.01,0,,27
2013-1-23,68,52,35,50,42,35,100,84,40,30.40,30.34,30.30,10,8,0,8,1,,0.00,3,Fog,219
2013-1-24,73,57,41,57,48,39,100,85,57,30.35,30.29,30.23,10,8,0,8,1,,0.00,3,Fog,203
2013-1-25,73,58,44,59,52,45,100,85,57,30.26,30.21,30.15,10,7,0,14,2,21,0.01,2,Fog,198
2013-1-26,73,62,51,63,56,51,100,90,57,30.25,30.22,30.18,10,6,0,7,1,,0.01,3,Fog,191
2013-1-27,72,62,51,61,57,50,100,91,59,30.29,30.24,30.21,10,6,0,10,2,,0.01,3,Fog,127
2013-1-28,73,64,55,67,62,55,100,94,73,30.26,30.20,30.12,10,5,0,13,3,,0.01,5,Fog,123
2013-1-29,77,72,66,72,68,66,100,94,79,30.11,30.00,29.82,10,8,2,20,8,25,0.00,7,Rain,155
2013-1-30,73,58,42,70,56,31,100,83,41,30.19,29.82,29.68,10,7,1,20,12,34,1.53,6,Rain-Thunderstorm,260
2013-1-31,60,47,34,40,33,24,96,63,25,30.34,30.26,30.19,10,10,10,8,1,,0.00,0,,248